sensor_id;sensor_type;location;lat;lon;timestamp;P1;durP1;ratioP1;P2;durP2;ratioP2
50056;SDS011;36875;49.468;11.200;2023-03-01T00:00:35;4.38;;;2.30;;
50056;SDS011;36875;49.468;11.200;2023-03-01T00:03:01;4.30;;;2.25;;
50056;SDS011;36875;49.468;11.200;2023-03-01T00:05:26;3.92;;;2.10;;
50056;SDS011;36875;49.468;11.200;2023-03-01T00:07:52;3.65;;;2.28;;
50056;SDS011;36875;49.468;11.200;2023-03-01T00:10:19;4.97;;;2.33;;
50056;SDS011;36875;49.468;11.200;2023-03-01T00:12:44;4.10;;;2.72;;
50056;SDS011;36875;49.468;11.200;2023-03-01T00:15:10;4.25;;;2.35;;
50056;SDS011;36875;49.468;11.200;2023-03-01T00:17:36;3.42;;;2.17;;
50056;SDS011;36875;49.468;11.200;2023-03-01T00:20:02;4.32;;;2.38;;
50056;SDS011;36875;49.468;11.200;2023-03-01T00:22:28;3.88;;;2.25;;
50056;SDS011;36875;49.468;11.200;2023-03-01T00:24:53;2.97;;;2.20;;
50056;SDS011;36875;49.468;11.200;2023-03-01T00:27:20;4.03;;;1.90;;
50056;SDS011;36875;49.468;11.200;2023-03-01T00:29:46;3.22;;;2.25;;
50056;SDS011;36875;49.468;11.200;2023-03-01T00:32:11;3.22;;;1.98;;
50056;SDS011;36875;49.468;11.200;2023-03-01T00:34:37;5.30;;;2.10;;
50056;SDS011;36875;49.468;11.200;2023-03-01T00:37:02;3.15;;;1.90;;
50056;SDS011;36875;49.468;11.200;2023-03-01T00:39:30;3.40;;;1.98;;
50056;SDS011;36875;49.468;11.200;2023-03-01T00:41:56;2.95;;;1.85;;
50056;SDS011;36875;49.468;11.200;2023-03-01T00:44:23;3.55;;;2.10;;
50056;SDS011;36875;49.468;11.200;2023-03-01T00:46:48;3.15;;;2.13;;
50056;SDS011;36875;49.468;11.200;2023-03-01T00:49:14;4.40;;;2.22;;
50056;SDS011;36875;49.468;11.200;2023-03-01T00:51:39;4.05;;;2.08;;
50056;SDS011;36875;49.468;11.200;2023-03-01T00:54:07;3.85;;;1.90;;
50056;SDS011;36875;49.468;11.200;2023-03-01T00:56:33;3.30;;;1.73;;
50056;SDS011;36875;49.468;11.200;2023-03-01T00:58:59;3.05;;;1.92;;
50056;SDS011;36875;49.468;11.200;2023-03-01T01:01:27;3.88;;;2.08;;
50056;SDS011;36875;49.468;11.200;2023-03-01T01:03:57;3.17;;;2.08;;
50056;SDS011;36875;49.468;11.200;2023-03-01T01:06:24;2.88;;;1.77;;
50056;SDS011;36875;49.468;11.200;2023-03-01T01:08:51;3.10;;;1.73;;
50056;SDS011;36875;49.468;11.200;2023-03-01T01:11:18;3.70;;;1.83;;
50056;SDS011;36875;49.468;11.200;2023-03-01T01:13:46;3.10;;;2.00;;
50056;SDS011;36875;49.468;11.200;2023-03-01T01:16:12;4.72;;;2.10;;
50056;SDS011;36875;49.468;11.200;2023-03-01T01:18:40;2.88;;;1.83;;
50056;SDS011;36875;49.468;11.200;2023-03-01T01:21:06;3.20;;;2.08;;
50056;SDS011;36875;49.468;11.200;2023-03-01T01:23:33;2.55;;;1.75;;
50056;SDS011;36875;49.468;11.200;2023-03-01T01:26:02;3.50;;;1.95;;
50056;SDS011;36875;49.468;11.200;2023-03-01T01:28:28;2.67;;;1.73;;
50056;SDS011;36875;49.468;11.200;2023-03-01T01:30:54;2.90;;;1.60;;
50056;SDS011;36875;49.468;11.200;2023-03-01T01:33:19;3.33;;;1.70;;
50056;SDS011;36875;49.468;11.200;2023-03-01T01:35:46;3.15;;;1.88;;
50056;SDS011;36875;49.468;11.200;2023-03-01T01:38:11;2.83;;;1.75;;
50056;SDS011;36875;49.468;11.200;2023-03-01T01:40:42;2.75;;;1.83;;
50056;SDS011;36875;49.468;11.200;2023-03-01T01:43:09;3.15;;;1.70;;
50056;SDS011;36875;49.468;11.200;2023-03-01T01:45:42;2.97;;;1.80;;
50056;SDS011;36875;49.468;11.200;2023-03-01T01:48:10;2.45;;;1.67;;
50056;SDS011;36875;49.468;11.200;2023-03-01T01:50:39;3.35;;;1.90;;
50056;SDS011;36875;49.468;11.200;2023-03-01T01:53:08;2.47;;;1.83;;
50056;SDS011;36875;49.468;11.200;2023-03-01T01:55:38;2.60;;;1.70;;
50056;SDS011;36875;49.468;11.200;2023-03-01T01:58:08;2.58;;;1.60;;
50056;SDS011;36875;49.468;11.200;2023-03-01T02:00:36;2.35;;;1.27;;
50056;SDS011;36875;49.468;11.200;2023-03-01T02:03:04;2.45;;;1.70;;
50056;SDS011;36875;49.468;11.200;2023-03-01T02:05:34;2.45;;;1.67;;
50056;SDS011;36875;49.468;11.200;2023-03-01T02:08:11;2.83;;;1.70;;
50056;SDS011;36875;49.468;11.200;2023-03-01T02:10:38;1.85;;;1.50;;
50056;SDS011;36875;49.468;11.200;2023-03-01T02:13:05;2.78;;;2.13;;
50056;SDS011;36875;49.468;11.200;2023-03-01T02:15:31;2.85;;;1.63;;
50056;SDS011;36875;49.468;11.200;2023-03-01T02:17:58;2.38;;;1.73;;
50056;SDS011;36875;49.468;11.200;2023-03-01T02:20:26;3.00;;;1.40;;
50056;SDS011;36875;49.468;11.200;2023-03-01T02:22:58;2.40;;;1.58;;
50056;SDS011;36875;49.468;11.200;2023-03-01T02:25:29;2.13;;;1.70;;
50056;SDS011;36875;49.468;11.200;2023-03-01T02:27:59;2.35;;;1.60;;
50056;SDS011;36875;49.468;11.200;2023-03-01T02:30:34;2.83;;;1.58;;
50056;SDS011;36875;49.468;11.200;2023-03-01T02:33:00;2.78;;;1.80;;
50056;SDS011;36875;49.468;11.200;2023-03-01T02:35:28;2.88;;;1.73;;
50056;SDS011;36875;49.468;11.200;2023-03-01T02:37:57;2.40;;;1.50;;
50056;SDS011;36875;49.468;11.200;2023-03-01T02:40:25;2.63;;;1.40;;
50056;SDS011;36875;49.468;11.200;2023-03-01T02:42:53;2.65;;;1.50;;
50056;SDS011;36875;49.468;11.200;2023-03-01T02:45:21;2.95;;;1.90;;
50056;SDS011;36875;49.468;11.200;2023-03-01T02:47:48;2.55;;;1.60;;
50056;SDS011;36875;49.468;11.200;2023-03-01T02:50:15;3.03;;;1.48;;
50056;SDS011;36875;49.468;11.200;2023-03-01T02:52:57;2.85;;;1.70;;
50056;SDS011;36875;49.468;11.200;2023-03-01T02:55:31;2.60;;;1.60;;
50056;SDS011;36875;49.468;11.200;2023-03-01T02:57:56;2.78;;;1.50;;
50056;SDS011;36875;49.468;11.200;2023-03-01T03:00:23;2.38;;;1.42;;
50056;SDS011;36875;49.468;11.200;2023-03-01T03:02:53;2.17;;;1.45;;
50056;SDS011;36875;49.468;11.200;2023-03-01T03:05:20;1.52;;;1.30;;
50056;SDS011;36875;49.468;11.200;2023-03-01T03:07:47;2.28;;;1.35;;
50056;SDS011;36875;49.468;11.200;2023-03-01T03:10:14;3.58;;;1.77;;
50056;SDS011;36875;49.468;11.200;2023-03-01T03:12:41;3.47;;;1.60;;
50056;SDS011;36875;49.468;11.200;2023-03-01T03:15:07;2.38;;;1.50;;
50056;SDS011;36875;49.468;11.200;2023-03-01T03:17:34;1.95;;;1.50;;
50056;SDS011;36875;49.468;11.200;2023-03-01T03:20:02;1.80;;;1.50;;
50056;SDS011;36875;49.468;11.200;2023-03-01T03:22:28;3.78;;;1.50;;
50056;SDS011;36875;49.468;11.200;2023-03-01T03:24:54;2.65;;;1.77;;
50056;SDS011;36875;49.468;11.200;2023-03-01T03:27:19;2.47;;;1.33;;
50056;SDS011;36875;49.468;11.200;2023-03-01T03:29:45;2.33;;;1.60;;
50056;SDS011;36875;49.468;11.200;2023-03-01T03:32:10;2.10;;;1.50;;
50056;SDS011;36875;49.468;11.200;2023-03-01T03:34:36;1.95;;;1.40;;
50056;SDS011;36875;49.468;11.200;2023-03-01T03:37:03;2.67;;;1.50;;
50056;SDS011;36875;49.468;11.200;2023-03-01T03:39:28;2.08;;;1.40;;
50056;SDS011;36875;49.468;11.200;2023-03-01T03:41:59;2.40;;;1.38;;
50056;SDS011;36875;49.468;11.200;2023-03-01T03:44:25;2.03;;;1.33;;
50056;SDS011;36875;49.468;11.200;2023-03-01T03:46:51;2.85;;;1.45;;
50056;SDS011;36875;49.468;11.200;2023-03-01T03:49:16;1.55;;;1.35;;
50056;SDS011;36875;49.468;11.200;2023-03-01T03:51:42;2.25;;;1.30;;
50056;SDS011;36875;49.468;11.200;2023-03-01T03:54:11;3.33;;;1.80;;
50056;SDS011;36875;49.468;11.200;2023-03-01T03:56:37;2.63;;;1.50;;
50056;SDS011;36875;49.468;11.200;2023-03-01T03:59:02;2.15;;;1.35;;
50056;SDS011;36875;49.468;11.200;2023-03-01T04:01:28;1.88;;;1.20;;
50056;SDS011;36875;49.468;11.200;2023-03-01T04:03:53;2.22;;;1.48;;
50056;SDS011;36875;49.468;11.200;2023-03-01T04:06:19;2.05;;;1.40;;
50056;SDS011;36875;49.468;11.200;2023-03-01T04:08:45;2.55;;;1.60;;
50056;SDS011;36875;49.468;11.200;2023-03-01T04:11:12;2.15;;;1.48;;
50056;SDS011;36875;49.468;11.200;2023-03-01T04:13:54;2.00;;;1.38;;
50056;SDS011;36875;49.468;11.200;2023-03-01T04:16:20;2.90;;;1.60;;
50056;SDS011;36875;49.468;11.200;2023-03-01T04:18:46;2.13;;;1.50;;
50056;SDS011;36875;49.468;11.200;2023-03-01T04:21:12;2.67;;;1.50;;
50056;SDS011;36875;49.468;11.200;2023-03-01T04:23:38;2.33;;;1.48;;
50056;SDS011;36875;49.468;11.200;2023-03-01T04:26:05;1.80;;;1.27;;
50056;SDS011;36875;49.468;11.200;2023-03-01T04:28:33;1.90;;;1.40;;
50056;SDS011;36875;49.468;11.200;2023-03-01T04:31:02;2.58;;;1.50;;
50056;SDS011;36875;49.468;11.200;2023-03-01T04:33:37;2.38;;;1.48;;
50056;SDS011;36875;49.468;11.200;2023-03-01T04:36:03;1.80;;;1.20;;
50056;SDS011;36875;49.468;11.200;2023-03-01T04:38:30;1.95;;;1.40;;
50056;SDS011;36875;49.468;11.200;2023-03-01T04:40:55;2.45;;;1.65;;
50056;SDS011;36875;49.468;11.200;2023-03-01T04:43:21;1.40;;;1.20;;
50056;SDS011;36875;49.468;11.200;2023-03-01T04:45:48;2.03;;;1.52;;
50056;SDS011;36875;49.468;11.200;2023-03-01T04:48:13;1.52;;;1.13;;
50056;SDS011;36875;49.468;11.200;2023-03-01T04:50:38;2.25;;;1.55;;
50056;SDS011;36875;49.468;11.200;2023-03-01T04:53:04;1.90;;;1.23;;
50056;SDS011;36875;49.468;11.200;2023-03-01T04:55:29;1.88;;;1.00;;
50056;SDS011;36875;49.468;11.200;2023-03-01T04:57:56;2.22;;;1.40;;
50056;SDS011;36875;49.468;11.200;2023-03-01T05:00:22;2.20;;;1.40;;
50056;SDS011;36875;49.468;11.200;2023-03-01T05:02:50;2.15;;;1.50;;
50056;SDS011;36875;49.468;11.200;2023-03-01T05:05:21;1.60;;;1.30;;
50056;SDS011;36875;49.468;11.200;2023-03-01T05:07:50;2.05;;;1.45;;
50056;SDS011;36875;49.468;11.200;2023-03-01T05:10:16;2.28;;;1.45;;
50056;SDS011;36875;49.468;11.200;2023-03-01T05:12:42;1.75;;;1.20;;
50056;SDS011;36875;49.468;11.200;2023-03-01T05:15:08;1.50;;;1.17;;
50056;SDS011;36875;49.468;11.200;2023-03-01T05:17:34;2.92;;;1.40;;
50056;SDS011;36875;49.468;11.200;2023-03-01T05:20:00;1.83;;;1.30;;
50056;SDS011;36875;49.468;11.200;2023-03-01T05:22:28;2.85;;;1.45;;
50056;SDS011;36875;49.468;11.200;2023-03-01T05:24:54;2.00;;;1.27;;
50056;SDS011;36875;49.468;11.200;2023-03-01T05:27:20;2.28;;;1.35;;
50056;SDS011;36875;49.468;11.200;2023-03-01T05:29:47;2.22;;;1.40;;
50056;SDS011;36875;49.468;11.200;2023-03-01T05:32:13;2.38;;;1.50;;
50056;SDS011;36875;49.468;11.200;2023-03-01T05:34:40;1.88;;;1.63;;
50056;SDS011;36875;49.468;11.200;2023-03-01T05:37:07;2.03;;;1.20;;
50056;SDS011;36875;49.468;11.200;2023-03-01T05:39:34;3.00;;;1.48;;
50056;SDS011;36875;49.468;11.200;2023-03-01T05:42:00;1.92;;;1.45;;
50056;SDS011;36875;49.468;11.200;2023-03-01T05:44:26;1.40;;;1.13;;
50056;SDS011;36875;49.468;11.200;2023-03-01T05:46:52;1.63;;;1.15;;
50056;SDS011;36875;49.468;11.200;2023-03-01T05:49:18;2.28;;;1.27;;
50056;SDS011;36875;49.468;11.200;2023-03-01T05:51:47;1.73;;;1.17;;
50056;SDS011;36875;49.468;11.200;2023-03-01T05:54:15;2.03;;;1.23;;
50056;SDS011;36875;49.468;11.200;2023-03-01T05:56:41;2.05;;;1.20;;
50056;SDS011;36875;49.468;11.200;2023-03-01T05:59:06;1.95;;;1.20;;
50056;SDS011;36875;49.468;11.200;2023-03-01T06:01:32;1.83;;;1.15;;
50056;SDS011;36875;49.468;11.200;2023-03-01T06:03:58;2.70;;;1.38;;
50056;SDS011;36875;49.468;11.200;2023-03-01T06:06:24;1.45;;;1.10;;
50056;SDS011;36875;49.468;11.200;2023-03-01T06:08:49;1.83;;;1.30;;
50056;SDS011;36875;49.468;11.200;2023-03-01T06:11:16;2.70;;;1.63;;
50056;SDS011;36875;49.468;11.200;2023-03-01T06:13:42;1.80;;;1.30;;
50056;SDS011;36875;49.468;11.200;2023-03-01T06:16:08;3.15;;;1.38;;
50056;SDS011;36875;49.468;11.200;2023-03-01T06:18:34;2.35;;;1.60;;
50056;SDS011;36875;49.468;11.200;2023-03-01T06:21:00;2.38;;;1.63;;
50056;SDS011;36875;49.468;11.200;2023-03-01T06:23:26;2.50;;;1.70;;
50056;SDS011;36875;49.468;11.200;2023-03-01T06:25:51;4.28;;;1.80;;
50056;SDS011;36875;49.468;11.200;2023-03-01T06:28:18;4.18;;;2.13;;
50056;SDS011;36875;49.468;11.200;2023-03-01T06:30:44;5.32;;;2.20;;
50056;SDS011;36875;49.468;11.200;2023-03-01T06:33:09;5.30;;;2.20;;
50056;SDS011;36875;49.468;11.200;2023-03-01T06:35:35;3.45;;;1.70;;
50056;SDS011;36875;49.468;11.200;2023-03-01T06:38:01;8.23;;;2.80;;
50056;SDS011;36875;49.468;11.200;2023-03-01T06:40:28;8.63;;;3.58;;
50056;SDS011;36875;49.468;11.200;2023-03-01T06:42:56;5.88;;;2.75;;
50056;SDS011;36875;49.468;11.200;2023-03-01T06:45:23;8.38;;;3.40;;
50056;SDS011;36875;49.468;11.200;2023-03-01T06:47:49;9.57;;;3.10;;
50056;SDS011;36875;49.468;11.200;2023-03-01T06:50:16;12.68;;;3.05;;
50056;SDS011;36875;49.468;11.200;2023-03-01T06:52:42;10.18;;;3.88;;
50056;SDS011;36875;49.468;11.200;2023-03-01T06:55:09;7.25;;;3.10;;
50056;SDS011;36875;49.468;11.200;2023-03-01T06:57:36;8.70;;;3.00;;
50056;SDS011;36875;49.468;11.200;2023-03-01T07:00:01;9.77;;;3.78;;
50056;SDS011;36875;49.468;11.200;2023-03-01T07:02:28;8.30;;;3.15;;
50056;SDS011;36875;49.468;11.200;2023-03-01T07:04:53;10.07;;;3.20;;
50056;SDS011;36875;49.468;11.200;2023-03-01T07:07:19;20.35;;;3.92;;
50056;SDS011;36875;49.468;11.200;2023-03-01T07:09:45;12.07;;;7.25;;
50056;SDS011;36875;49.468;11.200;2023-03-01T07:12:10;10.23;;;3.75;;
50056;SDS011;36875;49.468;11.200;2023-03-01T07:14:36;9.32;;;3.75;;
50056;SDS011;36875;49.468;11.200;2023-03-01T07:17:01;7.78;;;3.72;;
50056;SDS011;36875;49.468;11.200;2023-03-01T07:19:28;12.23;;;4.10;;
50056;SDS011;36875;49.468;11.200;2023-03-01T07:21:54;81.82;;;74.68;;
50056;SDS011;36875;49.468;11.200;2023-03-01T07:24:20;18.52;;;14.18;;
50056;SDS011;36875;49.468;11.200;2023-03-01T07:26:47;20.15;;;14.38;;
50056;SDS011;36875;49.468;11.200;2023-03-01T07:29:13;17.92;;;14.63;;
50056;SDS011;36875;49.468;11.200;2023-03-01T07:31:39;16.52;;;14.05;;
50056;SDS011;36875;49.468;11.200;2023-03-01T07:34:04;18.27;;;13.20;;
50056;SDS011;36875;49.468;11.200;2023-03-01T07:36:31;13.77;;;11.10;;
50056;SDS011;36875;49.468;11.200;2023-03-01T07:38:57;15.75;;;9.70;;
50056;SDS011;36875;49.468;11.200;2023-03-01T07:41:22;12.32;;;8.90;;
50056;SDS011;36875;49.468;11.200;2023-03-01T07:43:48;19.42;;;8.77;;
50056;SDS011;36875;49.468;11.200;2023-03-01T07:46:13;13.50;;;8.40;;
50056;SDS011;36875;49.468;11.200;2023-03-01T07:48:39;21.73;;;9.30;;
50056;SDS011;36875;49.468;11.200;2023-03-01T07:51:05;17.17;;;8.07;;
50056;SDS011;36875;49.468;11.200;2023-03-01T07:53:32;18.08;;;8.60;;
50056;SDS011;36875;49.468;11.200;2023-03-01T07:56:02;25.27;;;9.20;;
50056;SDS011;36875;49.468;11.200;2023-03-01T07:58:28;26.75;;;9.57;;
50056;SDS011;36875;49.468;11.200;2023-03-01T08:00:54;24.48;;;8.90;;
50056;SDS011;36875;49.468;11.200;2023-03-01T08:03:19;25.30;;;9.43;;
50056;SDS011;36875;49.468;11.200;2023-03-01T08:05:45;23.90;;;9.18;;
50056;SDS011;36875;49.468;11.200;2023-03-01T08:08:10;24.90;;;9.43;;
50056;SDS011;36875;49.468;11.200;2023-03-01T08:10:37;30.90;;;10.10;;
50056;SDS011;36875;49.468;11.200;2023-03-01T08:13:02;29.30;;;9.30;;
50056;SDS011;36875;49.468;11.200;2023-03-01T08:15:28;25.08;;;8.98;;
50056;SDS011;36875;49.468;11.200;2023-03-01T08:17:53;28.83;;;9.68;;
50056;SDS011;36875;49.468;11.200;2023-03-01T08:20:19;26.40;;;9.43;;
50056;SDS011;36875;49.468;11.200;2023-03-01T08:22:44;26.27;;;9.70;;
50056;SDS011;36875;49.468;11.200;2023-03-01T08:25:10;33.95;;;10.35;;
50056;SDS011;36875;49.468;11.200;2023-03-01T08:27:37;26.23;;;9.60;;
50056;SDS011;36875;49.468;11.200;2023-03-01T08:30:02;28.63;;;8.93;;
50056;SDS011;36875;49.468;11.200;2023-03-01T08:32:28;24.92;;;8.70;;
50056;SDS011;36875;49.468;11.200;2023-03-01T08:34:54;26.58;;;8.38;;
50056;SDS011;36875;49.468;11.200;2023-03-01T08:37:19;23.58;;;9.23;;
50056;SDS011;36875;49.468;11.200;2023-03-01T08:39:45;25.92;;;8.43;;
50056;SDS011;36875;49.468;11.200;2023-03-01T08:42:11;21.77;;;8.82;;
50056;SDS011;36875;49.468;11.200;2023-03-01T08:44:38;23.35;;;7.90;;
50056;SDS011;36875;49.468;11.200;2023-03-01T08:47:03;19.88;;;8.10;;
50056;SDS011;36875;49.468;11.200;2023-03-01T08:49:29;21.55;;;7.78;;
50056;SDS011;36875;49.468;11.200;2023-03-01T08:51:57;16.73;;;7.70;;
50056;SDS011;36875;49.468;11.200;2023-03-01T08:54:23;17.77;;;7.78;;
50056;SDS011;36875;49.468;11.200;2023-03-01T08:56:48;23.75;;;8.93;;
50056;SDS011;36875;49.468;11.200;2023-03-01T08:59:14;16.63;;;7.45;;
50056;SDS011;36875;49.468;11.200;2023-03-01T09:01:42;19.00;;;7.95;;
50056;SDS011;36875;49.468;11.200;2023-03-01T09:04:08;18.40;;;7.88;;
50056;SDS011;36875;49.468;11.200;2023-03-01T09:06:34;21.80;;;7.65;;
50056;SDS011;36875;49.468;11.200;2023-03-01T09:09:00;16.48;;;7.57;;
50056;SDS011;36875;49.468;11.200;2023-03-01T09:11:27;17.63;;;7.43;;
50056;SDS011;36875;49.468;11.200;2023-03-01T09:13:53;17.95;;;6.85;;
50056;SDS011;36875;49.468;11.200;2023-03-01T09:16:19;18.17;;;6.82;;
50056;SDS011;36875;49.468;11.200;2023-03-01T09:18:49;13.98;;;6.65;;
50056;SDS011;36875;49.468;11.200;2023-03-01T09:21:16;15.27;;;7.22;;
50056;SDS011;36875;49.468;11.200;2023-03-01T09:23:43;16.58;;;6.53;;
50056;SDS011;36875;49.468;11.200;2023-03-01T09:26:11;18.40;;;6.60;;
50056;SDS011;36875;49.468;11.200;2023-03-01T09:28:38;16.17;;;6.50;;
50056;SDS011;36875;49.468;11.200;2023-03-01T09:31:05;15.77;;;6.30;;
50056;SDS011;36875;49.468;11.200;2023-03-01T09:33:31;15.52;;;6.72;;
50056;SDS011;36875;49.468;11.200;2023-03-01T09:36:00;16.15;;;6.35;;
50056;SDS011;36875;49.468;11.200;2023-03-01T09:38:26;15.00;;;5.95;;
50056;SDS011;36875;49.468;11.200;2023-03-01T09:40:52;15.02;;;5.97;;
50056;SDS011;36875;49.468;11.200;2023-03-01T09:43:20;17.30;;;5.72;;
50056;SDS011;36875;49.468;11.200;2023-03-01T09:45:55;16.10;;;6.03;;
50056;SDS011;36875;49.468;11.200;2023-03-01T09:48:25;18.35;;;5.80;;
50056;SDS011;36875;49.468;11.200;2023-03-01T09:50:54;12.73;;;6.05;;
50056;SDS011;36875;49.468;11.200;2023-03-01T09:53:22;12.40;;;6.10;;
50056;SDS011;36875;49.468;11.200;2023-03-01T09:55:53;12.05;;;5.80;;
50056;SDS011;36875;49.468;11.200;2023-03-01T09:58:37;15.32;;;5.50;;
50056;SDS011;36875;49.468;11.200;2023-03-01T10:01:23;13.30;;;6.07;;
50056;SDS011;36875;49.468;11.200;2023-03-01T10:07:09;11.90;;;5.05;;
50056;SDS011;36875;49.468;11.200;2023-03-01T10:09:44;12.45;;;5.72;;
50056;SDS011;36875;49.468;11.200;2023-03-01T10:12:12;12.70;;;5.78;;
50056;SDS011;36875;49.468;11.200;2023-03-01T10:14:43;13.32;;;5.55;;
50056;SDS011;36875;49.468;11.200;2023-03-01T10:17:18;11.70;;;5.47;;
50056;SDS011;36875;49.468;11.200;2023-03-01T10:19:50;11.82;;;5.75;;
50056;SDS011;36875;49.468;11.200;2023-03-01T10:22:17;8.60;;;5.03;;
50056;SDS011;36875;49.468;11.200;2023-03-01T10:24:50;13.25;;;5.35;;
50056;SDS011;36875;49.468;11.200;2023-03-01T10:27:18;11.93;;;5.65;;
50056;SDS011;36875;49.468;11.200;2023-03-01T10:29:48;13.15;;;5.55;;
50056;SDS011;36875;49.468;11.200;2023-03-01T10:32:20;8.15;;;5.03;;
50056;SDS011;36875;49.468;11.200;2023-03-01T10:34:47;11.10;;;5.07;;
50056;SDS011;36875;49.468;11.200;2023-03-01T10:37:14;12.77;;;5.25;;
50056;SDS011;36875;49.468;11.200;2023-03-01T10:39:58;11.40;;;5.07;;
50056;SDS011;36875;49.468;11.200;2023-03-01T10:42:31;9.38;;;4.53;;
50056;SDS011;36875;49.468;11.200;2023-03-01T10:45:00;10.70;;;4.97;;
50056;SDS011;36875;49.468;11.200;2023-03-01T10:47:41;10.73;;;4.78;;
50056;SDS011;36875;49.468;11.200;2023-03-01T10:50:09;10.57;;;5.13;;
50056;SDS011;36875;49.468;11.200;2023-03-01T10:52:55;8.18;;;4.30;;
50056;SDS011;36875;49.468;11.200;2023-03-01T10:55:25;9.68;;;4.78;;
50056;SDS011;36875;49.468;11.200;2023-03-01T10:58:05;11.30;;;4.97;;
50056;SDS011;36875;49.468;11.200;2023-03-01T11:00:33;9.20;;;4.25;;
50056;SDS011;36875;49.468;11.200;2023-03-01T11:03:12;8.77;;;4.40;;
50056;SDS011;36875;49.468;11.200;2023-03-01T11:05:50;7.50;;;4.05;;
50056;SDS011;36875;49.468;11.200;2023-03-01T11:08:26;10.70;;;4.68;;
50056;SDS011;36875;49.468;11.200;2023-03-01T11:11:02;10.90;;;4.75;;
50056;SDS011;36875;49.468;11.200;2023-03-01T11:13:29;9.32;;;4.35;;
50056;SDS011;36875;49.468;11.200;2023-03-01T11:15:58;10.88;;;4.95;;
50056;SDS011;36875;49.468;11.200;2023-03-01T11:18:24;9.63;;;4.15;;
50056;SDS011;36875;49.468;11.200;2023-03-01T11:20:51;10.32;;;4.43;;
50056;SDS011;36875;49.468;11.200;2023-03-01T11:23:20;7.40;;;4.15;;
50056;SDS011;36875;49.468;11.200;2023-03-01T11:25:48;9.15;;;4.30;;
50056;SDS011;36875;49.468;11.200;2023-03-01T11:28:20;11.65;;;4.10;;
50056;SDS011;36875;49.468;11.200;2023-03-01T11:30:48;12.85;;;4.57;;
50056;SDS011;36875;49.468;11.200;2023-03-01T11:33:20;6.43;;;4.03;;
50056;SDS011;36875;49.468;11.200;2023-03-01T11:36:00;9.70;;;4.22;;
50056;SDS011;36875;49.468;11.200;2023-03-01T11:38:30;7.95;;;4.00;;
50056;SDS011;36875;49.468;11.200;2023-03-01T11:40:59;7.10;;;3.70;;
50056;SDS011;36875;49.468;11.200;2023-03-01T11:43:35;7.60;;;4.20;;
50056;SDS011;36875;49.468;11.200;2023-03-01T11:49:18;8.73;;;4.07;;
50056;SDS011;36875;49.468;11.200;2023-03-01T11:52:06;9.30;;;4.28;;
50056;SDS011;36875;49.468;11.200;2023-03-01T11:54:41;9.63;;;4.60;;
50056;SDS011;36875;49.468;11.200;2023-03-01T11:57:20;9.27;;;4.40;;
50056;SDS011;36875;49.468;11.200;2023-03-01T12:00:02;11.05;;;4.00;;
50056;SDS011;36875;49.468;11.200;2023-03-01T12:02:47;8.15;;;3.97;;
50056;SDS011;36875;49.468;11.200;2023-03-01T12:08:38;8.88;;;3.92;;
50056;SDS011;36875;49.468;11.200;2023-03-01T12:11:11;8.32;;;3.60;;
50056;SDS011;36875;49.468;11.200;2023-03-01T12:17:00;9.70;;;4.20;;
50056;SDS011;36875;49.468;11.200;2023-03-01T12:19:43;8.13;;;4.07;;
50056;SDS011;36875;49.468;11.200;2023-03-01T12:22:22;10.05;;;3.90;;
50056;SDS011;36875;49.468;11.200;2023-03-01T12:24:59;9.60;;;4.43;;
50056;SDS011;36875;49.468;11.200;2023-03-01T12:31:02;10.38;;;4.18;;
50056;SDS011;36875;49.468;11.200;2023-03-01T12:33:45;10.15;;;3.95;;
50056;SDS011;36875;49.468;11.200;2023-03-01T12:36:28;7.47;;;3.55;;
50056;SDS011;36875;49.468;11.200;2023-03-01T12:39:09;11.77;;;3.83;;
50056;SDS011;36875;49.468;11.200;2023-03-01T12:41:51;12.80;;;3.80;;
50056;SDS011;36875;49.468;11.200;2023-03-01T12:44:36;9.68;;;3.92;;
50056;SDS011;36875;49.468;11.200;2023-03-01T12:47:13;13.13;;;4.35;;
50056;SDS011;36875;49.468;11.200;2023-03-01T12:49:48;9.82;;;4.20;;
50056;SDS011;36875;49.468;11.200;2023-03-01T12:52:19;10.07;;;3.95;;
50056;SDS011;36875;49.468;11.200;2023-03-01T12:54:48;8.23;;;3.47;;
50056;SDS011;36875;49.468;11.200;2023-03-01T12:57:17;10.75;;;3.78;;
50056;SDS011;36875;49.468;11.200;2023-03-01T12:59:51;9.80;;;3.58;;
50056;SDS011;36875;49.468;11.200;2023-03-01T13:02:35;6.13;;;3.28;;
50056;SDS011;36875;49.468;11.200;2023-03-01T13:05:13;7.85;;;3.75;;
50056;SDS011;36875;49.468;11.200;2023-03-01T13:07:50;7.93;;;3.53;;
50056;SDS011;36875;49.468;11.200;2023-03-01T13:10:23;6.30;;;3.50;;
50056;SDS011;36875;49.468;11.200;2023-03-01T13:13:01;6.50;;;3.33;;
50056;SDS011;36875;49.468;11.200;2023-03-01T13:15:36;9.57;;;3.33;;
50056;SDS011;36875;49.468;11.200;2023-03-01T13:18:03;8.48;;;3.35;;
50056;SDS011;36875;49.468;11.200;2023-03-01T13:20:58;6.70;;;3.63;;
50056;SDS011;36875;49.468;11.200;2023-03-01T13:23:29;6.45;;;3.10;;
50056;SDS011;36875;49.468;11.200;2023-03-01T13:26:05;7.88;;;3.40;;
50056;SDS011;36875;49.468;11.200;2023-03-01T13:34:39;23.90;;;21.08;;
50056;SDS011;36875;49.468;11.200;2023-03-01T13:37:17;17.60;;;10.95;;
50056;SDS011;36875;49.468;11.200;2023-03-01T13:39:44;15.55;;;8.60;;
50056;SDS011;36875;49.468;11.200;2023-03-01T13:45:03;18.05;;;9.32;;
50056;SDS011;36875;49.468;11.200;2023-03-01T13:47:38;13.18;;;7.95;;
50056;SDS011;36875;49.468;11.200;2023-03-01T13:50:06;15.65;;;8.00;;
50056;SDS011;36875;49.468;11.200;2023-03-01T13:52:43;9.65;;;7.35;;
50056;SDS011;36875;49.468;11.200;2023-03-01T13:55:15;11.50;;;7.07;;
50056;SDS011;36875;49.468;11.200;2023-03-01T13:57:44;12.60;;;7.07;;
50056;SDS011;36875;49.468;11.200;2023-03-01T14:00:25;10.55;;;6.50;;
50056;SDS011;36875;49.468;11.200;2023-03-01T14:02:59;11.40;;;6.18;;
50056;SDS011;36875;49.468;11.200;2023-03-01T14:05:33;11.52;;;6.00;;
50056;SDS011;36875;49.468;11.200;2023-03-01T14:08:02;11.05;;;5.38;;
50056;SDS011;36875;49.468;11.200;2023-03-01T14:10:30;11.73;;;6.18;;
50056;SDS011;36875;49.468;11.200;2023-03-01T14:13:05;9.13;;;5.45;;
50056;SDS011;36875;49.468;11.200;2023-03-01T14:15:47;10.68;;;5.63;;
50056;SDS011;36875;49.468;11.200;2023-03-01T14:18:29;8.85;;;5.20;;
50056;SDS011;36875;49.468;11.200;2023-03-01T14:23:27;10.80;;;5.53;;
50056;SDS011;36875;49.468;11.200;2023-03-01T14:25:53;15.38;;;5.15;;
50056;SDS011;36875;49.468;11.200;2023-03-01T14:28:20;8.73;;;4.85;;
50056;SDS011;36875;49.468;11.200;2023-03-01T14:30:50;8.80;;;5.22;;
50056;SDS011;36875;49.468;11.200;2023-03-01T14:33:21;8.10;;;4.85;;
50056;SDS011;36875;49.468;11.200;2023-03-01T14:35:52;7.50;;;4.70;;
50056;SDS011;36875;49.468;11.200;2023-03-01T14:38:20;6.75;;;4.28;;
50056;SDS011;36875;49.468;11.200;2023-03-01T14:40:47;8.07;;;4.63;;
50056;SDS011;36875;49.468;11.200;2023-03-01T14:43:20;9.02;;;5.07;;
50056;SDS011;36875;49.468;11.200;2023-03-01T14:45:49;10.13;;;4.35;;
50056;SDS011;36875;49.468;11.200;2023-03-01T14:48:15;9.98;;;4.70;;
50056;SDS011;36875;49.468;11.200;2023-03-01T14:50:42;10.55;;;4.85;;
50056;SDS011;36875;49.468;11.200;2023-03-01T14:53:12;11.75;;;4.80;;
50056;SDS011;36875;49.468;11.200;2023-03-01T14:55:44;11.13;;;4.55;;
50056;SDS011;36875;49.468;11.200;2023-03-01T14:58:15;7.60;;;4.20;;
50056;SDS011;36875;49.468;11.200;2023-03-01T15:00:46;11.52;;;4.70;;
50056;SDS011;36875;49.468;11.200;2023-03-01T15:05:45;13.45;;;5.00;;
50056;SDS011;36875;49.468;11.200;2023-03-01T15:08:14;11.35;;;5.00;;